sensor_id;sensor_type;location;lat;lon;timestamp;pressure;altitude;pressure_sealevel;temperature;humidity
49657;BME280;71194;38.900;-77.124;2023-07-13T00:00:31;99963.14;;;34.44;29.48
49657;BME280;71194;38.900;-77.124;2023-07-13T00:02:59;99961.66;;;34.74;29.57
49657;BME280;71194;38.900;-77.124;2023-07-13T00:05:26;99959.07;;;34.24;29.96
49657;BME280;71194;38.900;-77.124;2023-07-13T00:07:54;99952.89;;;33.96;30.30
49657;BME280;71194;38.900;-77.124;2023-07-13T00:10:23;99949.48;;;34.09;30.43
49657;BME280;71194;38.900;-77.124;2023-07-13T00:12:51;99950.10;;;34.34;30.41
49657;BME280;71194;38.900;-77.124;2023-07-13T00:15:20;99952.20;;;33.98;30.62
49657;BME280;71194;38.900;-77.124;2023-07-13T00:17:49;99951.15;;;33.78;30.47
49657;BME280;71194;38.900;-77.124;2023-07-13T00:20:17;99950.37;;;33.75;30.26
49657;BME280;71194;38.900;-77.124;2023-07-13T00:22:45;99955.05;;;33.84;30.40
49657;BME280;71194;38.900;-77.124;2023-07-13T00:25:13;99957.47;;;33.80;30.32
49657;BME280;71194;38.900;-77.124;2023-07-13T00:27:42;99955.22;;;33.57;30.46
49657;BME280;71194;38.900;-77.124;2023-07-13T00:30:11;99953.17;;;33.34;30.89
49657;BME280;71194;38.900;-77.124;2023-07-13T00:32:39;99952.53;;;33.55;31.16
49657;BME280;71194;38.900;-77.124;2023-07-13T00:35:08;99952.21;;;33.33;31.24
49657;BME280;71194;38.900;-77.124;2023-07-13T00:37:36;99956.41;;;33.16;31.44
49657;BME280;71194;38.900;-77.124;2023-07-13T00:40:06;99954.66;;;33.25;31.31
49657;BME280;71194;38.900;-77.124;2023-07-13T00:42:34;99954.45;;;33.21;31.37
49657;BME280;71194;38.900;-77.124;2023-07-13T00:45:05;99956.89;;;33.08;31.45
49657;BME280;71194;38.900;-77.124;2023-07-13T00:47:34;99955.45;;;32.88;31.70
49657;BME280;71194;38.900;-77.124;2023-07-13T00:50:02;99956.27;;;32.78;31.89
49657;BME280;71194;38.900;-77.124;2023-07-13T00:52:31;99955.00;;;32.76;31.98
49657;BME280;71194;38.900;-77.124;2023-07-13T00:54:59;99952.47;;;32.67;32.29
49657;BME280;71194;38.900;-77.124;2023-07-13T00:57:27;99955.99;;;32.62;32.36
49657;BME280;71194;38.900;-77.124;2023-07-13T00:59:59;99956.79;;;32.51;32.49
49657;BME280;71194;38.900;-77.124;2023-07-13T01:02:29;99951.93;;;32.61;32.90
49657;BME280;71194;38.900;-77.124;2023-07-13T01:04:57;99952.36;;;32.61;33.09
49657;BME280;71194;38.900;-77.124;2023-07-13T01:07:25;99957.42;;;32.37;33.25
49657;BME280;71194;38.900;-77.124;2023-07-13T01:09:53;99955.73;;;32.57;33.52
49657;BME280;71194;38.900;-77.124;2023-07-13T01:12:21;99954.28;;;32.42;33.70
49657;BME280;71194;38.900;-77.124;2023-07-13T01:14:56;99959.68;;;32.44;33.80
49657;BME280;71194;38.900;-77.124;2023-07-13T01:17:28;99958.67;;;32.53;34.21
49657;BME280;71194;38.900;-77.124;2023-07-13T01:19:56;99957.61;;;32.45;34.45
49657;BME280;71194;38.900;-77.124;2023-07-13T01:22:24;99955.81;;;31.93;35.28
49657;BME280;71194;38.900;-77.124;2023-07-13T01:24:53;99953.28;;;32.12;35.78
49657;BME280;71194;38.900;-77.124;2023-07-13T01:27:23;99951.49;;;32.12;35.55
49657;BME280;71194;38.900;-77.124;2023-07-13T01:29:53;99956.66;;;32.06;35.79
49657;BME280;71194;38.900;-77.124;2023-07-13T01:32:23;99961.93;;;32.09;35.90
49657;BME280;71194;38.900;-77.124;2023-07-13T01:34:53;99962.48;;;32.06;35.91
49657;BME280;71194;38.900;-77.124;2023-07-13T01:37:21;99963.05;;;32.02;36.06
49657;BME280;71194;38.900;-77.124;2023-07-13T01:39:50;99962.64;;;31.81;36.61
49657;BME280;71194;38.900;-77.124;2023-07-13T01:42:18;99963.57;;;31.77;36.64
49657;BME280;71194;38.900;-77.124;2023-07-13T01:44:46;99969.70;;;31.63;36.84
49657;BME280;71194;38.900;-77.124;2023-07-13T01:47:14;99977.15;;;31.60;36.92
49657;BME280;71194;38.900;-77.124;2023-07-13T01:49:42;99983.83;;;31.65;36.94
49657;BME280;71194;38.900;-77.124;2023-07-13T01:52:09;99983.89;;;31.77;37.41
49657;BME280;71194;38.900;-77.124;2023-07-13T01:54:37;99980.76;;;31.53;37.84
49657;BME280;71194;38.900;-77.124;2023-07-13T01:57:05;99977.21;;;31.32;37.82
49657;BME280;71194;38.900;-77.124;2023-07-13T01:59:33;99980.05;;;31.60;37.83
49657;BME280;71194;38.900;-77.124;2023-07-13T02:02:01;99983.54;;;31.65;37.78
49657;BME280;71194;38.900;-77.124;2023-07-13T02:04:29;99986.30;;;31.62;38.07
49657;BME280;71194;38.900;-77.124;2023-07-13T02:06:57;99981.94;;;31.17;38.38
49657;BME280;71194;38.900;-77.124;2023-07-13T02:09:24;99979.30;;;31.45;38.44
49657;BME280;71194;38.900;-77.124;2023-07-13T02:11:53;99978.29;;;31.29;38.37
49657;BME280;71194;38.900;-77.124;2023-07-13T02:14:20;99979.28;;;31.76;38.38
49657;BME280;71194;38.900;-77.124;2023-07-13T02:16:48;99979.19;;;31.49;38.42
49657;BME280;71194;38.900;-77.124;2023-07-13T02:19:16;99981.10;;;31.22;38.57
49657;BME280;71194;38.900;-77.124;2023-07-13T02:21:44;99990.73;;;31.63;38.76
49657;BME280;71194;38.900;-77.124;2023-07-13T02:24:12;99994.98;;;30.97;38.96
49657;BME280;71194;38.900;-77.124;2023-07-13T02:26:40;99996.30;;;31.45;38.98
49657;BME280;71194;38.900;-77.124;2023-07-13T02:29:08;99994.88;;;31.30;38.82
49657;BME280;71194;38.900;-77.124;2023-07-13T02:31:36;100002.13;;;31.41;39.19
49657;BME280;71194;38.900;-77.124;2023-07-13T02:34:04;100009.17;;;31.23;39.10
49657;BME280;71194;38.900;-77.124;2023-07-13T02:36:32;100009.86;;;31.20;39.19
49657;BME280;71194;38.900;-77.124;2023-07-13T02:39:02;100008.93;;;31.17;39.25
49657;BME280;71194;38.900;-77.124;2023-07-13T02:41:31;100010.91;;;31.39;39.24
49657;BME280;71194;38.900;-77.124;2023-07-13T02:43:59;100016.02;;;31.26;39.21
49657;BME280;71194;38.900;-77.124;2023-07-13T02:46:27;100018.48;;;31.38;39.50
49657;BME280;71194;38.900;-77.124;2023-07-13T02:48:55;100018.85;;;31.30;39.49
49657;BME280;71194;38.900;-77.124;2023-07-13T02:51:23;100013.38;;;30.98;39.70
49657;BME280;71194;38.900;-77.124;2023-07-13T02:53:51;100012.96;;;31.12;39.87
49657;BME280;71194;38.900;-77.124;2023-07-13T02:56:22;100016.53;;;31.04;40.09
49657;BME280;71194;38.900;-77.124;2023-07-13T02:58:50;100020.36;;;31.04;40.08
49657;BME280;71194;38.900;-77.124;2023-07-13T03:01:18;100022.32;;;31.10;40.00
49657;BME280;71194;38.900;-77.124;2023-07-13T03:03:46;100023.19;;;30.93;40.46
49657;BME280;71194;38.900;-77.124;2023-07-13T03:06:15;100022.30;;;31.37;40.58
49657;BME280;71194;38.900;-77.124;2023-07-13T03:08:43;100021.90;;;30.86;40.96
49657;BME280;71194;38.900;-77.124;2023-07-13T03:11:14;100019.71;;;30.84;41.06
49657;BME280;71194;38.900;-77.124;2023-07-13T03:13:42;100015.65;;;31.01;41.23
49657;BME280;71194;38.900;-77.124;2023-07-13T03:16:11;100009.69;;;30.81;41.24
49657;BME280;71194;38.900;-77.124;2023-07-13T03:18:39;100007.71;;;30.92;41.82
49657;BME280;71194;38.900;-77.124;2023-07-13T03:21:07;100009.18;;;30.96;41.43
49657;BME280;71194;38.900;-77.124;2023-07-13T03:23:35;100004.24;;;30.76;41.45
49657;BME280;71194;38.900;-77.124;2023-07-13T03:26:04;99999.84;;;30.65;41.62
49657;BME280;71194;38.900;-77.124;2023-07-13T03:28:33;99999.49;;;30.55;41.94
49657;BME280;71194;38.900;-77.124;2023-07-13T03:31:03;99993.91;;;30.65;42.23
49657;BME280;71194;38.900;-77.124;2023-07-13T03:33:32;99989.48;;;31.15;41.82
49657;BME280;71194;38.900;-77.124;2023-07-13T03:35:59;99987.67;;;30.61;42.21
49657;BME280;71194;38.900;-77.124;2023-07-13T03:38:27;99987.29;;;30.77;41.98
49657;BME280;71194;38.900;-77.124;2023-07-13T03:40:55;99986.00;;;30.59;42.01
49657;BME280;71194;38.900;-77.124;2023-07-13T03:43:23;99981.28;;;30.41;42.10
49657;BME280;71194;38.900;-77.124;2023-07-13T03:45:51;99980.93;;;30.57;42.21
49657;BME280;71194;38.900;-77.124;2023-07-13T03:48:19;99977.87;;;30.79;42.26
49657;BME280;71194;38.900;-77.124;2023-07-13T03:50:48;99981.72;;;30.41;42.45
49657;BME280;71194;38.900;-77.124;2023-07-13T03:53:15;99984.20;;;30.52;42.23
49657;BME280;71194;38.900;-77.124;2023-07-13T03:55:43;99980.53;;;30.47;42.29
49657;BME280;71194;38.900;-77.124;2023-07-13T03:58:30;99970.97;;;30.17;42.80
49657;BME280;71194;38.900;-77.124;2023-07-13T04:00:59;99968.62;;;30.45;42.22
49657;BME280;71194;38.900;-77.124;2023-07-13T04:03:27;99961.52;;;30.11;42.35
49657;BME280;71194;38.900;-77.124;2023-07-13T04:05:56;99956.26;;;30.32;42.26
49657;BME280;71194;38.900;-77.124;2023-07-13T04:08:24;99947.29;;;30.12;42.50
49657;BME280;71194;38.900;-77.124;2023-07-13T04:10:52;99944.67;;;30.15;42.44
49657;BME280;71194;38.900;-77.124;2023-07-13T04:13:19;99939.39;;;30.35;42.48
49657;BME280;71194;38.900;-77.124;2023-07-13T04:15:47;99932.80;;;30.16;42.44
49657;BME280;71194;38.900;-77.124;2023-07-13T04:18:15;99927.62;;;30.41;42.35
49657;BME280;71194;38.900;-77.124;2023-07-13T04:20:43;99928.67;;;30.20;42.33
49657;BME280;71194;38.900;-77.124;2023-07-13T04:23:12;99927.10;;;30.37;42.39
49657;BME280;71194;38.900;-77.124;2023-07-13T04:25:43;99923.33;;;30.18;42.25
49657;BME280;71194;38.900;-77.124;2023-07-13T04:28:11;99920.56;;;30.15;42.30
49657;BME280;71194;38.900;-77.124;2023-07-13T04:30:40;99921.59;;;30.28;42.52
49657;BME280;71194;38.900;-77.124;2023-07-13T04:33:08;99924.71;;;30.14;42.26
49657;BME280;71194;38.900;-77.124;2023-07-13T04:35:36;99926.92;;;30.18;42.22
49657;BME280;71194;38.900;-77.124;2023-07-13T04:38:04;99935.15;;;30.10;42.31
49657;BME280;71194;38.900;-77.124;2023-07-13T04:40:32;99935.42;;;29.84;42.25
49657;BME280;71194;38.900;-77.124;2023-07-13T04:43:00;99934.35;;;30.06;42.22
49657;BME280;71194;38.900;-77.124;2023-07-13T04:45:28;99930.82;;;30.10;42.26
49657;BME280;71194;38.900;-77.124;2023-07-13T04:47:56;99925.30;;;30.04;42.44
49657;BME280;71194;38.900;-77.124;2023-07-13T04:50:24;99924.51;;;30.11;42.39
49657;BME280;71194;38.900;-77.124;2023-07-13T04:52:52;99926.38;;;30.05;42.38
49657;BME280;71194;38.900;-77.124;2023-07-13T04:55:21;99923.40;;;29.89;42.66
49657;BME280;71194;38.900;-77.124;2023-07-13T04:57:48;99922.96;;;29.95;42.49
49657;BME280;71194;38.900;-77.124;2023-07-13T05:00:16;99919.08;;;30.16;42.54
49657;BME280;71194;38.900;-77.124;2023-07-13T05:02:44;99916.39;;;29.77;42.79
49657;BME280;71194;38.900;-77.124;2023-07-13T05:05:13;99911.28;;;29.87;42.72
49657;BME280;71194;38.900;-77.124;2023-07-13T05:07:40;99915.76;;;29.90;42.60
49657;BME280;71194;38.900;-77.124;2023-07-13T05:10:09;99912.64;;;30.01;42.89
49657;BME280;71194;38.900;-77.124;2023-07-13T05:12:37;99909.89;;;29.76;43.40
49657;BME280;71194;38.900;-77.124;2023-07-13T05:15:06;99907.04;;;29.91;43.23
49657;BME280;71194;38.900;-77.124;2023-07-13T05:17:34;99907.39;;;29.71;43.15
49657;BME280;71194;38.900;-77.124;2023-07-13T05:20:03;99903.42;;;30.04;43.08
49657;BME280;71194;38.900;-77.124;2023-07-13T05:22:30;99899.93;;;29.77;43.14
49657;BME280;71194;38.900;-77.124;2023-07-13T05:24:58;99896.29;;;30.29;43.17
49657;BME280;71194;38.900;-77.124;2023-07-13T05:27:26;99893.81;;;29.95;42.83
49657;BME280;71194;38.900;-77.124;2023-07-13T05:29:54;99893.17;;;29.94;42.96
49657;BME280;71194;38.900;-77.124;2023-07-13T05:32:21;99894.34;;;29.90;43.06
49657;BME280;71194;38.900;-77.124;2023-07-13T05:34:49;99893.44;;;29.98;43.06
49657;BME280;71194;38.900;-77.124;2023-07-13T05:37:17;99895.75;;;29.95;43.20
49657;BME280;71194;38.900;-77.124;2023-07-13T05:39:44;99888.79;;;29.90;43.08
49657;BME280;71194;38.900;-77.124;2023-07-13T05:42:12;99891.03;;;29.98;43.07
49657;BME280;71194;38.900;-77.124;2023-07-13T05:44:40;99893.13;;;29.98;43.17
49657;BME280;71194;38.900;-77.124;2023-07-13T05:47:08;99886.22;;;29.68;43.12
49657;BME280;71194;38.900;-77.124;2023-07-13T05:49:35;99879.57;;;29.66;43.19
49657;BME280;71194;38.900;-77.124;2023-07-13T05:52:04;99871.78;;;29.31;43.02
49657;BME280;71194;38.900;-77.124;2023-07-13T05:54:32;99865.99;;;29.56;42.89
49657;BME280;71194;38.900;-77.124;2023-07-13T05:57:00;99859.49;;;29.59;42.71
49657;BME280;71194;38.900;-77.124;2023-07-13T05:59:28;99863.39;;;29.44;42.51
49657;BME280;71194;38.900;-77.124;2023-07-13T06:01:56;99867.22;;;29.38;42.81
49657;BME280;71194;38.900;-77.124;2023-07-13T06:04:24;99870.07;;;29.39;42.99
49657;BME280;71194;38.900;-77.124;2023-07-13T06:06:52;99867.59;;;29.84;43.05
49657;BME280;71194;38.900;-77.124;2023-07-13T06:09:20;99867.94;;;29.87;42.65
49657;BME280;71194;38.900;-77.124;2023-07-13T06:11:48;99868.17;;;29.67;43.03
49657;BME280;71194;38.900;-77.124;2023-07-13T06:14:15;99863.87;;;29.55;42.59
49657;BME280;71194;38.900;-77.124;2023-07-13T06:16:43;99862.72;;;29.49;42.90
49657;BME280;71194;38.900;-77.124;2023-07-13T06:19:12;99863.23;;;29.73;42.83
49657;BME280;71194;38.900;-77.124;2023-07-13T06:21:40;99861.99;;;29.86;43.20
49657;BME280;71194;38.900;-77.124;2023-07-13T06:24:09;99855.58;;;29.55;43.21
49657;BME280;71194;38.900;-77.124;2023-07-13T06:26:37;99855.50;;;29.96;43.12
49657;BME280;71194;38.900;-77.124;2023-07-13T06:29:04;99853.34;;;29.33;43.17
49657;BME280;71194;38.900;-77.124;2023-07-13T06:31:32;99851.10;;;29.65;43.06
49657;BME280;71194;38.900;-77.124;2023-07-13T06:34:01;99848.14;;;29.64;43.05
49657;BME280;71194;38.900;-77.124;2023-07-13T06:36:28;99845.83;;;29.35;43.28
49657;BME280;71194;38.900;-77.124;2023-07-13T06:38:57;99846.23;;;29.38;43.44
49657;BME280;71194;38.900;-77.124;2023-07-13T06:41:25;99845.06;;;30.00;43.04
49657;BME280;71194;38.900;-77.124;2023-07-13T06:43:53;99842.59;;;29.61;42.86
49657;BME280;71194;38.900;-77.124;2023-07-13T06:46:21;99844.46;;;29.47;43.06
49657;BME280;71194;38.900;-77.124;2023-07-13T06:48:49;99843.96;;;29.69;43.51
49657;BME280;71194;38.900;-77.124;2023-07-13T06:51:17;99834.90;;;29.28;43.94
49657;BME280;71194;38.900;-77.124;2023-07-13T06:53:44;99836.51;;;29.08;44.12
49657;BME280;71194;38.900;-77.124;2023-07-13T06:56:12;99838.44;;;29.12;43.76
49657;BME280;71194;38.900;-77.124;2023-07-13T06:58:40;99836.71;;;29.53;43.70
49657;BME280;71194;38.900;-77.124;2023-07-13T07:01:09;99836.56;;;29.10;43.55
49657;BME280;71194;38.900;-77.124;2023-07-13T07:03:36;99837.57;;;29.32;43.41
49657;BME280;71194;38.900;-77.124;2023-07-13T07:06:12;99835.06;;;29.34;43.44
49657;BME280;71194;38.900;-77.124;2023-07-13T07:08:41;99838.52;;;29.30;44.00
49657;BME280;71194;38.900;-77.124;2023-07-13T07:11:10;99840.54;;;29.45;43.77
49657;BME280;71194;38.900;-77.124;2023-07-13T07:13:38;99843.60;;;29.50;43.60
49657;BME280;71194;38.900;-77.124;2023-07-13T07:16:06;99844.90;;;29.24;43.52
49657;BME280;71194;38.900;-77.124;2023-07-13T07:18:35;99843.83;;;29.04;43.57
49657;BME280;71194;38.900;-77.124;2023-07-13T07:21:02;99835.49;;;29.25;43.76
49657;BME280;71194;38.900;-77.124;2023-07-13T07:23:31;99838.44;;;29.21;43.99
49657;BME280;71194;38.900;-77.124;2023-07-13T07:25:59;99840.41;;;29.08;43.93
49657;BME280;71194;38.900;-77.124;2023-07-13T07:28:27;99846.93;;;29.07;44.05
49657;BME280;71194;38.900;-77.124;2023-07-13T07:30:57;99851.09;;;28.90;44.03
49657;BME280;71194;38.900;-77.124;2023-07-13T07:33:25;99849.44;;;28.78;44.36
49657;BME280;71194;38.900;-77.124;2023-07-13T07:35:53;99850.97;;;28.98;44.36
49657;BME280;71194;38.900;-77.124;2023-07-13T07:38:21;99841.94;;;29.26;44.31
49657;BME280;71194;38.900;-77.124;2023-07-13T07:40:49;99845.65;;;29.26;44.19
49657;BME280;71194;38.900;-77.124;2023-07-13T07:43:17;99843.57;;;28.90;44.30
49657;BME280;71194;38.900;-77.124;2023-07-13T07:45:45;99842.34;;;29.05;44.47
49657;BME280;71194;38.900;-77.124;2023-07-13T07:48:13;99838.55;;;28.73;44.38
49657;BME280;71194;38.900;-77.124;2023-07-13T07:50:40;99842.92;;;28.72;44.75
49657;BME280;71194;38.900;-77.124;2023-07-13T07:53:08;99848.49;;;28.88;44.33
49657;BME280;71194;38.900;-77.124;2023-07-13T07:55:36;99849.87;;;28.84;44.42
49657;BME280;71194;38.900;-77.124;2023-07-13T07:58:05;99851.53;;;28.33;44.44
49657;BME280;71194;38.900;-77.124;2023-07-13T08:00:33;99850.96;;;28.86;44.89
49657;BME280;71194;38.900;-77.124;2023-07-13T08:03:02;99850.42;;;28.52;45.19
49657;BME280;71194;38.900;-77.124;2023-07-13T08:05:30;99850.80;;;28.50;45.02
49657;BME280;71194;38.900;-77.124;2023-07-13T08:07:58;99856.92;;;28.66;45.09
49657;BME280;71194;38.900;-77.124;2023-07-13T08:10:25;99857.97;;;28.77;44.85
49657;BME280;71194;38.900;-77.124;2023-07-13T08:12:53;99864.27;;;28.75;45.19
49657;BME280;71194;38.900;-77.124;2023-07-13T08:15:21;99866.64;;;28.73;45.21
49657;BME280;71194;38.900;-77.124;2023-07-13T08:17:49;99871.28;;;28.67;45.47
49657;BME280;71194;38.900;-77.124;2023-07-13T08:20:17;99868.01;;;28.68;45.47
49657;BME280;71194;38.900;-77.124;2023-07-13T08:22:45;99870.24;;;28.64;45.61
49657;BME280;71194;38.900;-77.124;2023-07-13T08:25:13;99868.27;;;28.71;45.62
49657;BME280;71194;38.900;-77.124;2023-07-13T08:27:41;99865.32;;;28.63;45.30
49657;BME280;71194;38.900;-77.124;2023-07-13T08:30:10;99866.26;;;28.27;45.81
49657;BME280;71194;38.900;-77.124;2023-07-13T08:32:38;99869.09;;;28.33;46.03
49657;BME280;71194;38.900;-77.124;2023-07-13T08:35:06;99872.20;;;28.25;46.43
49657;BME280;71194;38.900;-77.124;2023-07-13T08:37:34;99874.43;;;28.30;46.07
49657;BME280;71194;38.900;-77.124;2023-07-13T08:40:02;99871.17;;;28.40;46.06
49657;BME280;71194;38.900;-77.124;2023-07-13T08:42:36;99869.29;;;28.45;46.46
49657;BME280;71194;38.900;-77.124;2023-07-13T08:45:12;99866.74;;;28.15;46.55
49657;BME280;71194;38.900;-77.124;2023-07-13T08:47:46;99866.78;;;28.18;46.35
49657;BME280;71194;38.900;-77.124;2023-07-13T08:50:18;99868.15;;;28.33;46.13
49657;BME280;71194;38.900;-77.124;2023-07-13T08:52:47;99864.16;;;28.39;45.96
49657;BME280;71194;38.900;-77.124;2023-07-13T08:55:20;99861.35;;;28.42;45.92
49657;BME280;71194;38.900;-77.124;2023-07-13T08:58:02;99854.36;;;28.60;46.10
49657;BME280;71194;38.900;-77.124;2023-07-13T09:00:37;99850.09;;;28.19;46.87
49657;BME280;71194;38.900;-77.124;2023-07-13T09:03:17;99848.90;;;28.31;47.44
49657;BME280;71194;38.900;-77.124;2023-07-13T09:05:50;99849.12;;;28.31;48.03
49657;BME280;71194;38.900;-77.124;2023-07-13T09:08:34;99846.23;;;27.88;47.71
49657;BME280;71194;38.900;-77.124;2023-07-13T09:11:18;99844.46;;;28.06;47.94
49657;BME280;71194;38.900;-77.124;2023-07-13T09:13:54;99839.56;;;28.34;47.68
49657;BME280;71194;38.900;-77.124;2023-07-13T09:16:26;99839.62;;;27.99;47.52
49657;BME280;71194;38.900;-77.124;2023-07-13T09:18:58;99839.38;;;28.41;47.39
49657;BME280;71194;38.900;-77.124;2023-07-13T09:21:31;99834.83;;;27.88;47.45
49657;BME280;71194;38.900;-77.124;2023-07-13T09:24:04;99832.83;;;27.58;48.40
49657;BME280;71194;38.900;-77.124;2023-07-13T09:26:42;99835.72;;;28.01;48.67
49657;BME280;71194;38.900;-77.124;2023-07-13T09:29:14;99841.56;;;28.05;48.48
49657;BME280;71194;38.900;-77.124;2023-07-13T09:31:47;99840.93;;;27.83;48.47
49657;BME280;71194;38.900;-77.124;2023-07-13T09:34:17;99837.60;;;28.06;48.54
49657;BME280;71194;38.900;-77.124;2023-07-13T09:36:45;99838.16;;;27.91;48.97
49657;BME280;71194;38.900;-77.124;2023-07-13T09:39:15;99834.59;;;27.91;49.06
49657;BME280;71194;38.900;-77.124;2023-07-13T09:41:53;99829.40;;;27.58;48.48
49657;BME280;71194;38.900;-77.124;2023-07-13T09:44:29;99822.01;;;28.01;48.18
49657;BME280;71194;38.900;-77.124;2023-07-13T09:46:58;99822.72;;;28.06;48.92
49657;BME280;71194;38.900;-77.124;2023-07-13T09:49:28;99824.73;;;27.87;48.89
49657;BME280;71194;38.900;-77.124;2023-07-13T09:52:02;99826.27;;;27.67;49.93
49657;BME280;71194;38.900;-77.124;2023-07-13T09:54:33;99826.31;;;27.78;49.79
49657;BME280;71194;38.900;-77.124;2023-07-13T09:57:03;99825.78;;;27.85;49.91
49657;BME280;71194;38.900;-77.124;2023-07-13T09:59:34;99825.83;;;27.71;50.42
49657;BME280;71194;38.900;-77.124;2023-07-13T10:02:02;99824.45;;;27.71;50.33
49657;BME280;71194;38.900;-77.124;2023-07-13T10:04:56;99821.41;;;27.69;50.19
49657;BME280;71194;38.900;-77.124;2023-07-13T10:07:25;99821.97;;;27.91;49.76
49657;BME280;71194;38.900;-77.124;2023-07-13T10:09:54;99818.74;;;27.88;49.87
49657;BME280;71194;38.900;-77.124;2023-07-13T10:12:22;99820.93;;;28.00;49.64
49657;BME280;71194;38.900;-77.124;2023-07-13T10:14:51;99819.51;;;27.76;49.85
49657;BME280;71194;38.900;-77.124;2023-07-13T10:17:25;99825.17;;;27.87;50.12
49657;BME280;71194;38.900;-77.124;2023-07-13T10:19:54;99827.03;;;28.11;50.11
49657;BME280;71194;38.900;-77.124;2023-07-13T10:22:27;99827.88;;;27.97;50.03
49657;BME280;71194;38.900;-77.124;2023-07-13T10:24:57;99827.39;;;27.84;50.20
49657;BME280;71194;38.900;-77.124;2023-07-13T10:27:31;99825.27;;;27.60;51.12
49657;BME280;71194;38.900;-77.124;2023-07-13T10:30:07;99829.63;;;27.94;50.94
49657;BME280;71194;38.900;-77.124;2023-07-13T10:32:40;99828.71;;;28.10;50.65
49657;BME280;71194;38.900;-77.124;2023-07-13T10:35:12;99827.43;;;28.06;51.09
49657;BME280;71194;38.900;-77.124;2023-07-13T10:37:48;99829.07;;;28.05;51.27
49657;BME280;71194;38.900;-77.124;2023-07-13T10:40:22;99830.08;;;28.01;51.35
49657;BME280;71194;38.900;-77.124;2023-07-13T10:42:54;99828.40;;;28.01;51.69
49657;BME280;71194;38.900;-77.124;2023-07-13T10:45:24;99832.01;;;27.84;52.15
49657;BME280;71194;38.900;-77.124;2023-07-13T10:47:54;99834.94;;;27.98;52.07
49657;BME280;71194;38.900;-77.124;2023-07-13T10:50:24;99833.92;;;28.08;52.26
49657;BME280;71194;38.900;-77.124;2023-07-13T10:52:53;99840.02;;;27.98;52.10
49657;BME280;71194;38.900;-77.124;2023-07-13T10:55:40;99837.57;;;28.24;51.61
49657;BME280;71194;38.900;-77.124;2023-07-13T10:58:14;99837.78;;;28.38;51.30
49657;BME280;71194;38.900;-77.124;2023-07-13T11:00:56;99839.59;;;28.46;51.77
49657;BME280;71194;38.900;-77.124;2023-07-13T11:03:27;99846.35;;;28.05;52.21
49657;BME280;71194;38.900;-77.124;2023-07-13T11:06:08;99843.32;;;28.01;52.49
49657;BME280;71194;38.900;-77.124;2023-07-13T11:08:38;99839.51;;;28.77;51.44
49657;BME280;71194;38.900;-77.124;2023-07-13T11:11:35;99837.25;;;28.59;51.62
49657;BME280;71194;38.900;-77.124;2023-07-13T11:14:05;99839.13;;;28.91;51.30
49657;BME280;71194;38.900;-77.124;2023-07-13T11:16:52;99839.88;;;28.84;51.36
49657;BME280;71194;38.900;-77.124;2023-07-13T11:19:39;99839.21;;;29.46;50.48
49657;BME280;71194;38.900;-77.124;2023-07-13T11:22:17;99843.04;;;29.13;50.49
49657;BME280;71194;38.900;-77.124;2023-07-13T11:24:51;99850.49;;;28.88;50.90
49657;BME280;71194;38.900;-77.124;2023-07-13T11:27:23;99853.49;;;29.27;50.89
49657;BME280;71194;38.900;-77.124;2023-07-13T11:30:13;99857.44;;;29.48;50.22
49657;BME280;71194;38.900;-77.124;2023-07-13T11:32:45;99857.78;;;29.16;50.87
49657;BME280;71194;38.900;-77.124;2023-07-13T11:35:22;99853.14;;;29.41;50.51
49657;BME280;71194;38.900;-77.124;2023-07-13T11:37:50;99855.08;;;29.48;50.42
49657;BME280;71194;38.900;-77.124;2023-07-13T11:40:19;99856.44;;;29.23;50.63
49657;BME280;71194;38.900;-77.124;2023-07-13T11:42:49;99853.76;;;29.36;50.56
49657;BME280;71194;38.900;-77.124;2023-07-13T11:45:21;99858.39;;;29.83;49.45
49657;BME280;71194;38.900;-77.124;2023-07-13T11:47:50;99855.35;;;30.24;49.39
49657;BME280;71194;38.900;-77.124;2023-07-13T11:50:20;99854.33;;;30.08;48.91
49657;BME280;71194;38.900;-77.124;2023-07-13T11:52:49;99857.73;;;30.07;48.89
49657;BME280;71194;38.900;-77.124;2023-07-13T11:55:20;99860.14;;;30.57;48.39
49657;BME280;71194;38.900;-77.124;2023-07-13T11:57:51;99859.85;;;30.27;48.85
49657;BME280;71194;38.900;-77.124;2023-07-13T12:00:25;99863.11;;;30.63;48.31
49657;BME280;71194;38.900;-77.124;2023-07-13T12:02:56;99866.58;;;30.55;48.54
49657;BME280;71194;38.900;-77.124;2023-07-13T12:05:25;99861.29;;;30.95;47.67
49657;BME280;71194;38.900;-77.124;2023-07-13T12:07:53;99858.88;;;30.82;47.23
49657;BME280;71194;38.900;-77.124;2023-07-13T12:10:24;99854.44;;;31.07;46.52
49657;BME280;71194;38.900;-77.124;2023-07-13T12:12:55;99856.63;;;30.86;46.81
49657;BME280;71194;38.900;-77.124;2023-07-13T12:15:36;99859.48;;;30.64;47.11
49657;BME280;71194;38.900;-77.124;2023-07-13T12:18:13;99857.58;;;30.90;46.08
49657;BME280;71194;38.900;-77.124;2023-07-13T12:20:41;99855.84;;;31.17;45.79
49657;BME280;71194;38.900;-77.124;2023-07-13T12:23:20;99857.48;;;31.21;45.62
49657;BME280;71194;38.900;-77.124;2023-07-13T12:25:48;99864.38;;;31.63;45.33
49657;BME280;71194;38.900;-77.124;2023-07-13T12:28:32;99865.93;;;31.76;44.79
49657;BME280;71194;38.900;-77.124;2023-07-13T12:31:03;99866.57;;;31.84;44.47
49657;BME280;71194;38.900;-77.124;2023-07-13T12:33:31;99872.05;;;32.22;44.09
49657;BME280;71194;38.900;-77.124;2023-07-13T12:36:02;99869.16;;;32.06;43.56
49657;BME280;71194;38.900;-77.124;2023-07-13T12:38:31;99872.53;;;31.79;43.79
49657;BME280;71194;38.900;-77.124;2023-07-13T12:41:02;99869.04;;;32.24;43.68
49657;BME280;71194;38.900;-77.124;2023-07-13T12:43:34;99870.53;;;32.56;42.64
49657;BME280;71194;38.900;-77.124;2023-07-13T12:46:16;99872.02;;;32.46;42.78
49657;BME280;71194;38.900;-77.124;2023-07-13T12:48:49;99872.30;;;32.26;42.62
49657;BME280;71194;38.900;-77.124;2023-07-13T12:51:20;99875.33;;;32.37;42.83
49657;BME280;71194;38.900;-77.124;2023-07-13T12:53:50;99870.73;;;32.27;42.76